createdAt,value
2022-10-23T00:01:45.897Z,91.90
2022-10-23T00:04:24.906Z,91.90
2022-10-23T00:06:52.122Z,91.90
2022-10-23T00:09:22.959Z,92.00
2022-10-23T00:11:51.016Z,91.90
2022-10-23T00:14:22.131Z,92.00
2022-10-23T00:16:51.619Z,91.90
2022-10-23T00:19:19.132Z,92.00
2022-10-23T00:21:48.861Z,91.90
2022-10-23T00:24:17.883Z,91.90
2022-10-23T00:26:45.078Z,91.80
2022-10-23T00:29:12.401Z,91.90
2022-10-23T00:31:39.632Z,91.90
2022-10-23T00:34:08.483Z,91.90
2022-10-23T00:36:36.200Z,91.80
2022-10-23T00:39:04.171Z,91.80
2022-10-23T00:41:32.588Z,91.80
2022-10-23T00:44:05.706Z,91.80
2022-10-23T00:46:33.674Z,91.80
2022-10-23T00:49:04.654Z,91.80
2022-10-23T00:51:55.925Z,91.90
2022-10-23T00:54:25.927Z,91.90
2022-10-23T00:56:59.147Z,91.90
2022-10-23T00:59:27.127Z,91.90
2022-10-23T01:01:55.325Z,91.90
2022-10-23T01:04:25.446Z,91.90
2022-10-23T01:07:00.392Z,91.90
2022-10-23T01:09:39.839Z,91.90
2022-10-23T01:12:31.068Z,91.90
2022-10-23T01:15:14.808Z,92.00
2022-10-23T01:17:53.454Z,92.00
2022-10-23T01:20:29.445Z,91.90
2022-10-23T01:23:14.896Z,91.90
2022-10-23T01:26:08.314Z,92.00
2022-10-23T01:28:40.076Z,91.90
2022-10-23T01:31:14.571Z,91.90
2022-10-23T01:33:47.352Z,92.00
2022-10-23T01:36:23.933Z,91.90
2022-10-23T01:39:11.264Z,91.90
2022-10-23T01:41:55.302Z,91.90
2022-10-23T01:44:33.077Z,91.90
2022-10-23T01:47:03.327Z,91.90
2022-10-23T01:49:33.597Z,91.90
2022-10-23T01:52:05.331Z,91.90
2022-10-23T01:54:45.633Z,91.90
2022-10-23T01:57:17.474Z,91.90
2022-10-23T01:59:53.498Z,92.00
2022-10-23T02:02:26.656Z,91.90
2022-10-23T02:04:53.768Z,91.90
2022-10-23T02:07:20.635Z,91.90
2022-10-23T02:09:48.119Z,91.90
2022-10-23T02:12:23.974Z,91.90
2022-10-23T02:15:19.284Z,92.00
2022-10-23T02:18:03.448Z,92.00
2022-10-23T02:20:56.457Z,91.90
2022-10-23T02:23:53.706Z,92.00
2022-10-23T02:26:37.718Z,92.00
2022-10-23T02:29:14.592Z,91.90
2022-10-23T02:31:44.098Z,92.00
2022-10-23T02:34:11.025Z,91.90
2022-10-23T02:36:41.212Z,91.90
2022-10-23T02:39:08.330Z,91.90
2022-10-23T02:41:50.495Z,92.00
2022-10-23T02:44:20.267Z,91.90
2022-10-23T02:46:52.614Z,91.90
2022-10-23T02:49:31.531Z,91.90
2022-10-23T02:52:04.205Z,91.90
2022-10-23T02:54:53.553Z,91.90
2022-10-23T02:57:35.595Z,91.90
2022-10-23T03:00:13.475Z,91.90
2022-10-23T03:02:49.044Z,91.90
2022-10-23T03:05:21.985Z,91.80
2022-10-23T03:07:52.278Z,91.80
2022-10-23T03:10:23.759Z,91.80
2022-10-23T03:12:50.908Z,91.90
2022-10-23T03:15:18.901Z,91.90
2022-10-23T03:17:49.515Z,91.90
2022-10-23T03:20:18.014Z,91.90
2022-10-23T03:22:45.770Z,92.00
2022-10-23T03:25:13.449Z,92.00
2022-10-23T03:27:40.299Z,92.10
2022-10-23T03:30:10.732Z,92.10
2022-10-23T03:32:41.151Z,92.10
2022-10-23T03:35:11.178Z,92.10
2022-10-23T03:37:40.700Z,92.10
2022-10-23T03:40:08.450Z,92.10
2022-10-23T03:42:37.359Z,92.10
2022-10-23T03:45:12.466Z,92.10
2022-10-23T03:47:41.642Z,92.10
2022-10-23T03:50:13.580Z,92.10
2022-10-23T03:52:40.837Z,92.10
2022-10-23T03:55:12.710Z,92.10
2022-10-23T03:57:41.111Z,92.10
2022-10-23T04:00:09.243Z,92.10
2022-10-23T04:02:49.981Z,92.10
2022-10-23T04:05:16.979Z,92.10
2022-10-23T04:07:52.968Z,92.10
2022-10-23T04:10:24.668Z,92.00
2022-10-23T04:12:56.374Z,92.10
2022-10-23T04:15:23.216Z,92.10
2022-10-23T04:17:50.673Z,92.10
2022-10-23T04:20:20.170Z,92.10
2022-10-23T04:22:47.245Z,92.10
2022-10-23T04:25:17.231Z,92.10
2022-10-23T04:27:48.177Z,92.10
2022-10-23T04:30:15.082Z,92.00
2022-10-23T04:32:42.304Z,92.00
2022-10-23T04:35:11.587Z,92.00
2022-10-23T04:37:40.616Z,92.00
2022-10-23T04:40:09.046Z,92.00
2022-10-23T04:42:37.757Z,92.00
2022-10-23T04:45:08.768Z,92.00
2022-10-23T04:47:35.920Z,92.00
2022-10-23T04:50:03.494Z,92.00
2022-10-23T04:52:57.538Z,92.00
2022-10-23T04:55:25.497Z,91.90
2022-10-23T04:58:06.886Z,91.90
2022-10-23T05:00:36.144Z,92.00
2022-10-23T05:03:05.573Z,92.00
2022-10-23T05:05:39.510Z,91.90
2022-10-23T05:08:29.503Z,91.90
2022-10-23T05:11:20.306Z,91.90
2022-10-23T05:13:49.616Z,91.90
2022-10-23T05:16:54.262Z,91.90
2022-10-23T05:19:38.315Z,91.90
2022-10-23T05:22:05.861Z,91.90
2022-10-23T05:24:49.736Z,91.90
2022-10-23T05:27:20.735Z,91.90
2022-10-23T05:29:51.560Z,91.90
2022-10-23T05:32:27.900Z,91.90
2022-10-23T05:35:02.936Z,92.00
2022-10-23T05:37:31.405Z,91.90
2022-10-23T05:40:14.747Z,91.90
2022-10-23T05:42:44.798Z,91.90
2022-10-23T05:45:18.966Z,91.90
2022-10-23T05:48:22.117Z,91.90
2022-10-23T05:51:11.741Z,91.80
2022-10-23T05:53:55.905Z,91.90
2022-10-23T05:56:52.061Z,91.80
2022-10-23T05:59:42.101Z,91.90
2022-10-23T06:02:21.620Z,91.90
2022-10-23T06:04:54.274Z,91.90
2022-10-23T06:07:35.011Z,91.90
2022-10-23T06:10:11.129Z,91.90
2022-10-23T06:12:46.339Z,91.90
2022-10-23T06:15:16.515Z,91.90
2022-10-23T06:18:05.193Z,91.90
2022-10-23T06:20:39.004Z,92.00
2022-10-23T06:23:11.434Z,92.00
2022-10-23T06:26:19.189Z,92.00
2022-10-23T06:29:08.670Z,92.00
2022-10-23T06:31:36.650Z,92.00
2022-10-23T06:34:10.701Z,92.10
2022-10-23T06:36:38.156Z,92.10
2022-10-23T06:39:14.427Z,92.10
2022-10-23T06:41:58.361Z,92.10
2022-10-23T06:44:55.078Z,92.10
2022-10-23T06:47:42.123Z,92.10
2022-10-23T06:50:33.806Z,92.10
2022-10-23T06:53:07.209Z,92.10
2022-10-23T06:55:40.294Z,92.10
2022-10-23T06:58:11.677Z,92.10
2022-10-23T07:00:54.069Z,92.10
2022-10-23T07:03:23.711Z,92.20
2022-10-23T07:05:50.604Z,92.20
2022-10-23T07:08:25.198Z,92.20
2022-10-23T07:10:55.390Z,92.30
2022-10-23T07:13:26.567Z,92.40
2022-10-23T07:16:10.282Z,92.40
2022-10-23T07:18:37.419Z,92.50
2022-10-23T07:21:32.661Z,92.50
2022-10-23T07:24:25.889Z,92.20
2022-10-23T07:26:58.261Z,92.30
2022-10-23T07:29:29.033Z,92.40
2022-10-23T07:31:58.010Z,92.50
2022-10-23T07:34:54.028Z,92.60
2022-10-23T07:37:30.287Z,92.60
2022-10-23T07:39:59.375Z,92.70
2022-10-23T07:42:28.775Z,92.80
2022-10-23T07:45:00.237Z,92.80
2022-10-23T07:47:32.570Z,92.90
2022-10-23T07:50:00.666Z,92.90
2022-10-23T07:52:30.884Z,92.90
2022-10-23T07:55:26.562Z,93.00
2022-10-23T07:58:01.499Z,93.10
2022-10-23T08:00:45.199Z,93.00
2022-10-23T08:03:22.455Z,93.10
2022-10-23T08:05:49.867Z,93.20
2022-10-23T08:08:24.365Z,93.20
2022-10-23T08:10:55.388Z,93.20
2022-10-23T08:13:27.616Z,93.30
2022-10-23T08:16:06.133Z,93.30
2022-10-23T08:18:55.741Z,93.30
2022-10-23T08:21:23.040Z,93.30
2022-10-23T08:23:57.915Z,93.30
2022-10-23T08:26:29.314Z,93.30
2022-10-23T08:28:58.581Z,93.30
2022-10-23T08:31:26.235Z,93.40
2022-10-23T08:34:13.422Z,93.50
2022-10-23T08:36:41.366Z,93.50
2022-10-23T08:39:08.525Z,93.50
2022-10-23T08:41:47.335Z,93.60
2022-10-23T08:44:34.863Z,93.60
2022-10-23T08:47:04.969Z,93.70
2022-10-23T08:50:02.175Z,93.70
2022-10-23T08:52:47.161Z,93.70
2022-10-23T08:55:30.089Z,93.80
2022-10-23T08:58:06.248Z,93.60
2022-10-23T09:00:37.602Z,93.60
2022-10-23T09:03:06.129Z,93.40
2022-10-23T09:05:52.174Z,93.20
2022-10-23T09:09:02.320Z,93.20
2022-10-23T09:11:53.071Z,93.30
2022-10-23T09:14:45.900Z,93.40
2022-10-23T09:17:21.865Z,94.10
2022-10-23T09:19:54.545Z,93.00
2022-10-23T09:22:24.030Z,93.00
2022-10-23T09:24:53.754Z,92.80
2022-10-23T09:27:21.922Z,92.50
2022-10-23T09:29:54.095Z,91.70
2022-10-23T09:32:35.509Z,92.10
2022-10-23T09:35:02.910Z,91.80
2022-10-23T09:37:35.958Z,91.90
2022-10-23T09:40:02.907Z,92.00
2022-10-23T09:42:30.189Z,91.40
2022-10-23T09:44:57.544Z,91.70
2022-10-23T09:47:26.001Z,90.90
2022-10-23T09:49:57.450Z,90.90
2022-10-23T09:52:29.041Z,91.20
2022-10-23T09:55:01.295Z,90.70
2022-10-23T09:57:40.890Z,90.30
2022-10-23T10:00:15.063Z,90.00
2022-10-23T10:02:44.286Z,87.90
2022-10-23T10:05:37.966Z,89.70
2022-10-23T10:08:09.192Z,88.90
2022-10-23T10:10:42.265Z,87.60
2022-10-23T10:13:46.416Z,87.40
2022-10-23T10:16:19.607Z,86.00
2022-10-23T10:18:50.854Z,86.20
2022-10-23T10:21:43.735Z,87.30
2022-10-23T10:24:36.410Z,86.70
2022-10-23T10:27:38.338Z,85.40
2022-10-23T10:30:38.817Z,85.50
2022-10-23T10:33:20.524Z,87.40
2022-10-23T10:36:04.850Z,86.20
2022-10-23T10:38:39.686Z,87.10
2022-10-23T10:41:26.041Z,85.50
2022-10-23T10:44:10.365Z,82.40
2022-10-23T10:46:47.021Z,79.00
2022-10-23T10:49:25.089Z,78.40
2022-10-23T10:52:33.262Z,79.60
2022-10-23T10:55:04.646Z,76.50
2022-10-23T10:58:18.999Z,75.60
2022-10-23T11:00:56.155Z,77.70
2022-10-23T11:03:41.962Z,76.20
2022-10-23T11:06:16.454Z,78.90
2022-10-23T11:08:57.237Z,75.50
2022-10-23T11:11:34.895Z,76.60
2022-10-23T11:14:03.120Z,75.60
2022-10-23T11:16:35.976Z,73.40
2022-10-23T11:19:26.518Z,71.80
2022-10-23T11:22:00.658Z,70.70
2022-10-23T11:25:00.004Z,70.90
2022-10-23T11:28:08.574Z,71.40
2022-10-23T11:30:48.709Z,72.40
2022-10-23T11:33:42.604Z,72.40
2022-10-23T11:36:52.564Z,71.90
2022-10-23T11:39:41.563Z,73.60
2022-10-23T11:42:31.042Z,74.10
2022-10-23T11:45:00.555Z,73.80
2022-10-23T11:47:39.239Z,73.80
2022-10-23T11:50:08.118Z,73.30
2022-10-23T11:52:38.741Z,73.20
2022-10-23T11:55:29.986Z,73.90
2022-10-23T11:58:10.883Z,74.00
2022-10-23T12:00:51.931Z,75.10
2022-10-23T12:03:24.472Z,72.30
2022-10-23T12:06:04.415Z,72.70
2022-10-23T12:08:40.450Z,73.80
2022-10-23T12:11:45.279Z,74.10
2022-10-23T12:14:34.374Z,74.30
2022-10-23T12:17:01.943Z,74.80
2022-10-23T12:19:31.156Z,72.20
2022-10-23T12:22:01.606Z,71.80
2022-10-23T12:24:41.261Z,70.70
2022-10-23T12:27:22.347Z,69.40
2022-10-23T12:30:16.443Z,70.10
2022-10-23T12:33:09.791Z,70.60
2022-10-23T12:36:02.907Z,67.70
2022-10-23T12:38:35.662Z,67.40
2022-10-23T12:41:13.036Z,67.70
2022-10-23T12:43:44.831Z,68.80
2022-10-23T12:46:16.951Z,69.10
2022-10-23T12:48:53.336Z,68.40
2022-10-23T12:51:33.756Z,64.60
2022-10-23T12:54:03.461Z,64.70
2022-10-23T12:56:39.061Z,64.20
2022-10-23T12:59:15.865Z,66.20
2022-10-23T13:01:46.992Z,61.30
2022-10-23T13:04:26.896Z,64.10
2022-10-23T13:06:56.636Z,62.90
2022-10-23T13:09:31.409Z,63.80
2022-10-23T13:12:24.482Z,66.10
2022-10-23T13:15:18.161Z,69.70
2022-10-23T13:18:04.027Z,68.50
2022-10-23T13:20:52.662Z,70.10
2022-10-23T13:23:24.956Z,70.10
2022-10-23T13:26:02.230Z,70.30
2022-10-23T13:28:42.868Z,69.90
2022-10-23T13:31:12.925Z,69.60
2022-10-23T13:33:59.256Z,70.40
2022-10-23T13:36:28.605Z,71.50
2022-10-23T13:39:10.371Z,68.80
2022-10-23T13:41:43.581Z,70.80
2022-10-23T13:44:16.187Z,71.00
2022-10-23T13:46:44.065Z,71.70
2022-10-23T13:49:12.534Z,71.10
2022-10-23T13:51:50.108Z,72.10
2022-10-23T13:56:58.402Z,74.30
2022-10-23T13:59:27.446Z,72.20
2022-10-23T14:01:56.842Z,73.90
2022-10-23T14:04:25.981Z,73.40
2022-10-23T14:06:58.663Z,71.60
2022-10-23T14:09:25.858Z,71.70
2022-10-23T14:11:52.632Z,72.60
2022-10-23T14:14:22.272Z,72.40
2022-10-23T14:16:54.338Z,72.30
2022-10-23T14:19:24.761Z,73.10
2022-10-23T14:21:52.333Z,71.90
2022-10-23T14:24:22.443Z,72.10
2022-10-23T14:26:49.748Z,72.80
2022-10-23T14:29:22.877Z,72.30
2022-10-23T14:31:54.023Z,73.90
2022-10-23T14:34:20.915Z,71.60
2022-10-23T14:36:50.345Z,72.80
2022-10-23T14:39:25.685Z,72.10
2022-10-23T14:41:52.516Z,72.00
2022-10-23T14:44:19.818Z,72.50
2022-10-23T14:46:49.229Z,72.40
2022-10-23T14:49:19.054Z,73.90
2022-10-23T14:51:49.309Z,75.70
2022-10-23T14:54:19.314Z,74.50
2022-10-23T14:56:46.132Z,74.70
2022-10-23T14:59:16.081Z,74.30
2022-10-23T15:01:48.330Z,74.10
2022-10-23T15:04:15.870Z,74.70
2022-10-23T15:06:43.473Z,76.00
2022-10-23T15:09:10.546Z,78.10
2022-10-23T15:11:42.492Z,79.50
2022-10-23T15:14:11.618Z,79.00
2022-10-23T15:16:42.528Z,80.00
2022-10-23T15:19:13.724Z,80.50
2022-10-23T15:21:44.821Z,80.60
2022-10-23T15:24:14.050Z,80.10
2022-10-23T15:26:43.867Z,81.10
2022-10-23T15:29:12.126Z,80.60
2022-10-23T15:31:40.756Z,81.60
2022-10-23T15:34:15.732Z,81.90
2022-10-23T15:36:45.185Z,82.60
2022-10-23T15:39:14.547Z,82.20
2022-10-23T15:41:43.237Z,82.00
2022-10-23T15:44:15.251Z,81.40
2022-10-23T15:46:44.960Z,81.70
2022-10-23T15:49:14.678Z,82.20
2022-10-23T15:51:42.529Z,82.40
2022-10-23T15:54:16.896Z,82.40
2022-10-23T15:56:49.538Z,83.00
2022-10-23T15:59:21.070Z,83.10
2022-10-23T16:01:48.153Z,83.10
2022-10-23T16:04:18.034Z,83.20
2022-10-23T16:06:45.821Z,83.30
2022-10-23T16:09:13.014Z,83.50
2022-10-23T16:11:43.989Z,83.80
2022-10-23T16:14:17.607Z,84.20
2022-10-23T16:16:49.962Z,84.00
2022-10-23T16:19:20.217Z,83.70
2022-10-23T16:21:49.270Z,83.90
2022-10-23T16:24:18.889Z,84.00
2022-10-23T16:26:53.103Z,84.30
2022-10-23T16:29:22.085Z,84.30
2022-10-23T16:31:50.859Z,84.20
2022-10-23T16:34:18.352Z,84.70
2022-10-23T16:36:45.644Z,85.10
2022-10-23T16:39:23.713Z,84.90
2022-10-23T16:45:21.203Z,85.20
2022-10-23T16:47:53.702Z,85.20
2022-10-23T16:50:20.537Z,85.00
2022-10-23T16:52:49.107Z,85.40
2022-10-23T16:55:18.107Z,85.10
2022-10-23T16:57:45.146Z,85.30
2022-10-23T17:00:14.758Z,85.50
2022-10-23T17:02:42.111Z,85.40
2022-10-23T17:05:10.155Z,85.50
2022-10-23T17:07:37.507Z,85.40
2022-10-23T17:10:04.914Z,85.60
2022-10-23T17:12:31.759Z,85.70
2022-10-23T17:14:58.536Z,86.20
2022-10-23T17:17:28.041Z,87.00
2022-10-23T17:19:56.946Z,87.00
2022-10-23T17:22:26.024Z,87.00
2022-10-23T17:24:53.863Z,86.80
2022-10-23T17:27:21.113Z,86.50
2022-10-23T17:29:50.482Z,85.80
2022-10-23T17:32:18.007Z,85.20
2022-10-23T17:34:48.358Z,85.40
2022-10-23T17:37:15.275Z,85.50
2022-10-23T17:39:42.392Z,85.60
2022-10-23T17:42:11.619Z,86.00
2022-10-23T17:44:43.114Z,85.90
2022-10-23T17:47:10.474Z,86.00
2022-10-23T17:49:41.626Z,86.10
2022-10-23T17:52:14.450Z,86.30
2022-10-23T17:54:42.223Z,86.40
2022-10-23T17:57:09.181Z,87.00
2022-10-23T17:59:36.020Z,86.50
2022-10-23T18:02:03.324Z,86.50
2022-10-23T18:04:30.279Z,86.00
2022-10-23T18:06:57.077Z,85.40
2022-10-23T18:09:24.725Z,85.40
2022-10-23T18:11:52.711Z,85.50
2022-10-23T18:14:27.260Z,85.60
2022-10-23T18:16:59.490Z,86.30
2022-10-23T18:19:26.789Z,86.60
2022-10-23T18:21:56.440Z,87.10
2022-10-23T18:24:23.675Z,88.00
2022-10-23T18:26:50.454Z,88.50
2022-10-23T18:29:18.327Z,89.00
2022-10-23T18:31:48.233Z,89.40
2022-10-23T18:34:19.718Z,89.70
2022-10-23T18:36:47.264Z,90.00
2022-10-23T18:39:18.560Z,90.10
2022-10-23T18:41:49.110Z,90.30
2022-10-23T18:44:18.817Z,90.50
2022-10-23T18:46:51.662Z,90.50
2022-10-23T18:49:19.901Z,90.50
2022-10-23T18:51:47.034Z,90.50
2022-10-23T18:54:18.614Z,90.60
2022-10-23T18:56:45.762Z,90.70
2022-10-23T18:59:19.144Z,90.70
2022-10-23T19:01:46.192Z,90.80
2022-10-23T19:04:16.186Z,90.90
2022-10-23T19:06:43.667Z,91.00
2022-10-23T19:09:13.664Z,91.10
2022-10-23T19:11:41.223Z,91.40
2022-10-23T19:14:10.906Z,91.60
2022-10-23T19:16:59.591Z,91.70
2022-10-23T19:19:33.114Z,91.90
2022-10-23T19:22:01.896Z,92.00
2022-10-23T19:24:36.679Z,91.90
2022-10-23T19:27:04.651Z,91.90
2022-10-23T19:29:36.239Z,91.80
2022-10-23T19:32:05.527Z,91.90
2022-10-23T19:34:32.606Z,91.90
2022-10-23T19:37:02.018Z,92.00
2022-10-23T19:39:31.391Z,92.00
2022-10-23T19:41:58.998Z,92.00
2022-10-23T19:44:26.229Z,92.00
2022-10-23T19:46:53.342Z,91.90
2022-10-23T19:49:20.427Z,91.90
2022-10-23T19:51:51.236Z,92.00
2022-10-23T19:54:20.152Z,91.90
2022-10-23T19:56:48.045Z,92.00
2022-10-23T19:59:15.642Z,92.10
2022-10-23T20:01:46.328Z,92.20
2022-10-23T20:04:16.753Z,92.40
2022-10-23T20:06:46.391Z,92.50
2022-10-23T20:09:15.661Z,92.60
2022-10-23T20:11:43.681Z,92.60
2022-10-23T20:14:13.032Z,92.70
2022-10-23T20:16:39.955Z,92.70
2022-10-23T20:19:09.764Z,92.70
2022-10-23T20:21:38.034Z,92.80
2022-10-23T20:24:08.217Z,92.80
2022-10-23T20:26:35.781Z,92.80
2022-10-23T20:29:04.914Z,92.80
2022-10-23T20:31:33.594Z,92.80
2022-10-23T20:34:00.395Z,93.10
2022-10-23T20:36:32.810Z,93.00
2022-10-23T20:39:07.392Z,93.00
2022-10-23T20:41:37.381Z,93.00
2022-10-23T20:44:07.619Z,93.00
2022-10-23T20:46:37.386Z,93.00
2022-10-23T20:49:04.770Z,92.90
2022-10-23T20:51:31.611Z,93.00
2022-10-23T20:53:58.790Z,92.90
2022-10-23T20:56:31.316Z,93.00
2022-10-23T20:59:02.219Z,93.00
2022-10-23T21:01:31.777Z,92.90
2022-10-23T21:04:02.936Z,92.90
2022-10-23T21:06:45.855Z,92.90
2022-10-23T21:09:21.855Z,92.90
2022-10-23T21:11:51.661Z,92.90
2022-10-23T21:14:18.958Z,92.90
2022-10-23T21:16:46.535Z,92.90
2022-10-23T21:19:15.820Z,93.00
2022-10-23T21:21:46.458Z,92.90
2022-10-23T21:24:16.489Z,92.90
2022-10-23T21:26:44.887Z,92.90
2022-10-23T21:29:20.492Z,92.90
2022-10-23T21:32:01.805Z,92.90
2022-10-23T21:34:29.492Z,92.90
2022-10-23T21:37:13.357Z,92.90
2022-10-23T21:39:44.387Z,92.90
2022-10-23T21:42:12.499Z,92.90
2022-10-23T21:44:39.529Z,92.90
2022-10-23T21:47:06.899Z,92.90
2022-10-23T21:49:33.848Z,92.80
2022-10-23T21:52:01.242Z,92.90
2022-10-23T21:54:28.078Z,92.90
2022-10-23T21:56:54.897Z,92.80
2022-10-23T21:59:29.114Z,92.80
2022-10-23T22:01:59.047Z,92.80
2022-10-23T22:04:28.583Z,92.80
2022-10-23T22:06:57.784Z,92.80
2022-10-23T22:09:24.940Z,92.90
2022-10-23T22:11:53.482Z,92.80
2022-10-23T22:14:21.149Z,92.80
2022-10-23T22:16:48.706Z,92.80
2022-10-23T22:19:17.020Z,92.70
2022-10-23T22:21:44.097Z,92.70
2022-10-23T22:24:15.574Z,92.60
2022-10-23T22:26:49.200Z,92.60
2022-10-23T22:29:21.768Z,92.60
2022-10-23T22:31:50.118Z,92.60
2022-10-23T22:37:11.020Z,92.50
2022-10-23T22:39:38.766Z,92.50
2022-10-23T22:42:08.245Z,92.60
2022-10-23T22:44:37.089Z,92.60
2022-10-23T22:47:04.058Z,92.60
2022-10-23T22:49:31.337Z,92.70
2022-10-23T22:52:00.469Z,92.80
2022-10-23T22:54:27.321Z,92.70
2022-10-23T22:56:56.839Z,92.70
2022-10-23T22:59:23.739Z,92.70
2022-10-23T23:01:51.182Z,92.70
2022-10-23T23:07:10.262Z,92.80
2022-10-23T23:09:41.613Z,92.70
2022-10-23T23:12:10.204Z,92.80
2022-10-23T23:14:39.894Z,92.70
2022-10-23T23:17:07.652Z,92.70
2022-10-23T23:19:34.825Z,92.70
2022-10-23T23:22:01.835Z,92.70
2022-10-23T23:24:28.706Z,92.70
2022-10-23T23:26:55.670Z,92.70
2022-10-23T23:29:26.888Z,92.70
2022-10-23T23:31:56.070Z,92.70
2022-10-23T23:34:23.076Z,92.70
2022-10-23T23:36:50.369Z,92.70
2022-10-23T23:39:18.892Z,92.70
2022-10-23T23:41:45.667Z,92.70
2022-10-23T23:44:13.159Z,92.70
2022-10-23T23:46:40.109Z,92.70
2022-10-23T23:49:06.894Z,92.70
2022-10-23T23:51:33.957Z,92.70
2022-10-23T23:54:01.025Z,92.70
2022-10-23T23:56:28.278Z,92.70
2022-10-23T23:58:58.074Z,92.70
